sensor_id;sensor_type;location;lat;lon;timestamp;temperature;humidity
65406;DHT22;52016;51.228;-2.322;2022-09-09T00:03:12;16.10;81.00
65406;DHT22;52016;51.228;-2.322;2022-09-09T00:11:27;16.20;81.50
65406;DHT22;52016;51.228;-2.322;2022-09-09T00:15:14;16.20;81.10
65406;DHT22;52016;51.228;-2.322;2022-09-09T00:23:55;16.20;81.70
65406;DHT22;52016;51.228;-2.322;2022-09-09T00:27:44;16.10;81.10
65406;DHT22;52016;51.228;-2.322;2022-09-09T00:31:29;16.10;81.20
65406;DHT22;52016;51.228;-2.322;2022-09-09T00:35:38;16.20;81.20
65406;DHT22;52016;51.228;-2.322;2022-09-09T00:39:32;16.20;81.40
65406;DHT22;52016;51.228;-2.322;2022-09-09T00:51:08;16.30;81.80
65406;DHT22;52016;51.228;-2.322;2022-09-09T00:55:16;16.20;81.40
65406;DHT22;52016;51.228;-2.322;2022-09-09T01:07:35;16.20;81.80
65406;DHT22;52016;51.228;-2.322;2022-09-09T01:15:16;16.10;81.30
65406;DHT22;52016;51.228;-2.322;2022-09-09T01:18:59;16.00;81.40
65406;DHT22;52016;51.228;-2.322;2022-09-09T01:26:44;16.00;81.40
65406;DHT22;52016;51.228;-2.322;2022-09-09T01:30:26;16.00;81.40
65406;DHT22;52016;51.228;-2.322;2022-09-09T01:34:15;15.90;81.30
65406;DHT22;52016;51.228;-2.322;2022-09-09T01:37:57;15.90;81.40
65406;DHT22;52016;51.228;-2.322;2022-09-09T01:41:38;15.80;81.40
65406;DHT22;52016;51.228;-2.322;2022-09-09T01:45:21;15.80;81.40
65406;DHT22;52016;51.228;-2.322;2022-09-09T01:49:05;15.80;81.40
65406;DHT22;52016;51.228;-2.322;2022-09-09T01:52:52;15.80;81.50
65406;DHT22;52016;51.228;-2.322;2022-09-09T01:57:06;15.80;81.50
65406;DHT22;52016;51.228;-2.322;2022-09-09T02:01:09;15.80;81.70
65406;DHT22;52016;51.228;-2.322;2022-09-09T02:05:00;15.80;81.60
65406;DHT22;52016;51.228;-2.322;2022-09-09T02:08:49;15.80;81.30
65406;DHT22;52016;51.228;-2.322;2022-09-09T02:12:31;15.80;81.30
65406;DHT22;52016;51.228;-2.322;2022-09-09T02:20:24;15.70;81.70
65406;DHT22;52016;51.228;-2.322;2022-09-09T02:24:15;15.60;81.30
65406;DHT22;52016;51.228;-2.322;2022-09-09T02:27:57;15.60;81.40
65406;DHT22;52016;51.228;-2.322;2022-09-09T02:31:44;15.60;81.40
65406;DHT22;52016;51.228;-2.322;2022-09-09T02:35:28;15.60;81.50
65406;DHT22;52016;51.228;-2.322;2022-09-09T02:39:12;15.50;81.60
65406;DHT22;52016;51.228;-2.322;2022-09-09T02:42:55;15.50;81.60
65406;DHT22;52016;51.228;-2.322;2022-09-09T02:50:31;15.60;81.80
65406;DHT22;52016;51.228;-2.322;2022-09-09T02:54:23;15.50;81.60
65406;DHT22;52016;51.228;-2.322;2022-09-09T02:58:10;15.60;81.70
65406;DHT22;52016;51.228;-2.322;2022-09-09T03:01:54;15.60;81.70
65406;DHT22;52016;51.228;-2.322;2022-09-09T03:05:36;15.60;81.60
65406;DHT22;52016;51.228;-2.322;2022-09-09T03:09:18;15.60;81.70
65406;DHT22;52016;51.228;-2.322;2022-09-09T03:13:00;15.60;81.60
65406;DHT22;52016;51.228;-2.322;2022-09-09T03:16:42;15.60;81.70
65406;DHT22;52016;51.228;-2.322;2022-09-09T03:20:25;15.70;81.70
65406;DHT22;52016;51.228;-2.322;2022-09-09T03:24:07;15.70;81.70
65406;DHT22;52016;51.228;-2.322;2022-09-09T03:27:49;15.70;81.70
65406;DHT22;52016;51.228;-2.322;2022-09-09T03:31:32;15.70;81.70
65406;DHT22;52016;51.228;-2.322;2022-09-09T03:35:14;15.70;81.70
65406;DHT22;52016;51.228;-2.322;2022-09-09T03:38:57;15.70;81.70
65406;DHT22;52016;51.228;-2.322;2022-09-09T03:42:39;15.80;81.60
65406;DHT22;52016;51.228;-2.322;2022-09-09T03:46:23;15.80;81.70
65406;DHT22;52016;51.228;-2.322;2022-09-09T03:50:06;15.70;81.70
65406;DHT22;52016;51.228;-2.322;2022-09-09T03:53:50;15.80;81.70
65406;DHT22;52016;51.228;-2.322;2022-09-09T03:57:32;15.80;81.70
65406;DHT22;52016;51.228;-2.322;2022-09-09T04:01:16;15.80;81.70
65406;DHT22;52016;51.228;-2.322;2022-09-09T04:04:59;15.80;81.60
65406;DHT22;52016;51.228;-2.322;2022-09-09T04:08:41;15.70;81.60
65406;DHT22;52016;51.228;-2.322;2022-09-09T04:12:23;15.70;81.70
65406;DHT22;52016;51.228;-2.322;2022-09-09T04:16:05;15.70;81.60
65406;DHT22;52016;51.228;-2.322;2022-09-09T04:19:47;15.70;81.60
65406;DHT22;52016;51.228;-2.322;2022-09-09T04:23:29;15.70;81.60
65406;DHT22;52016;51.228;-2.322;2022-09-09T04:27:11;15.70;81.60
65406;DHT22;52016;51.228;-2.322;2022-09-09T04:30:53;15.70;81.60
65406;DHT22;52016;51.228;-2.322;2022-09-09T04:34:35;15.60;81.50
65406;DHT22;52016;51.228;-2.322;2022-09-09T04:38:17;15.60;81.60
65406;DHT22;52016;51.228;-2.322;2022-09-09T04:41:59;15.70;81.50
65406;DHT22;52016;51.228;-2.322;2022-09-09T04:45:42;15.70;81.50
65406;DHT22;52016;51.228;-2.322;2022-09-09T04:49:24;15.70;81.50
65406;DHT22;52016;51.228;-2.322;2022-09-09T04:53:06;15.60;81.40
65406;DHT22;52016;51.228;-2.322;2022-09-09T04:56:50;15.60;81.40
65406;DHT22;52016;51.228;-2.322;2022-09-09T05:00:33;15.60;81.40
65406;DHT22;52016;51.228;-2.322;2022-09-09T05:04:17;15.60;81.30
65406;DHT22;52016;51.228;-2.322;2022-09-09T05:08:07;15.50;81.20
65406;DHT22;52016;51.228;-2.322;2022-09-09T05:11:50;15.50;81.10
65406;DHT22;52016;51.228;-2.322;2022-09-09T05:15:32;15.50;81.10
65406;DHT22;52016;51.228;-2.322;2022-09-09T05:19:13;15.50;81.10
65406;DHT22;52016;51.228;-2.322;2022-09-09T05:22:56;15.50;81.10
65406;DHT22;52016;51.228;-2.322;2022-09-09T05:26:38;15.50;81.00
65406;DHT22;52016;51.228;-2.322;2022-09-09T05:30:21;15.50;80.90
65406;DHT22;52016;51.228;-2.322;2022-09-09T05:34:04;15.60;80.70
65406;DHT22;52016;51.228;-2.322;2022-09-09T05:37:46;15.60;80.70
65406;DHT22;52016;51.228;-2.322;2022-09-09T05:41:28;15.50;80.60
65406;DHT22;52016;51.228;-2.322;2022-09-09T05:45:10;15.50;80.50
65406;DHT22;52016;51.228;-2.322;2022-09-09T05:48:53;15.50;80.40
65406;DHT22;52016;51.228;-2.322;2022-09-09T05:52:35;15.40;80.30
65406;DHT22;52016;51.228;-2.322;2022-09-09T05:56:22;15.40;80.20
65406;DHT22;52016;51.228;-2.322;2022-09-09T06:00:05;15.40;80.10
65406;DHT22;52016;51.228;-2.322;2022-09-09T06:03:49;15.40;80.10
65406;DHT22;52016;51.228;-2.322;2022-09-09T06:07:31;15.40;80.10
65406;DHT22;52016;51.228;-2.322;2022-09-09T06:11:15;15.30;80.10
65406;DHT22;52016;51.228;-2.322;2022-09-09T06:14:58;15.30;80.10
65406;DHT22;52016;51.228;-2.322;2022-09-09T06:18:40;15.30;80.00
65406;DHT22;52016;51.228;-2.322;2022-09-09T06:22:22;15.30;80.00
65406;DHT22;52016;51.228;-2.322;2022-09-09T06:26:29;15.40;80.00
65406;DHT22;52016;51.228;-2.322;2022-09-09T06:30:12;15.40;80.00
65406;DHT22;52016;51.228;-2.322;2022-09-09T06:33:54;15.40;80.00
65406;DHT22;52016;51.228;-2.322;2022-09-09T06:37:36;15.40;80.00
65406;DHT22;52016;51.228;-2.322;2022-09-09T06:41:19;15.50;80.00
65406;DHT22;52016;51.228;-2.322;2022-09-09T06:45:02;15.60;80.00
65406;DHT22;52016;51.228;-2.322;2022-09-09T06:48:44;15.70;80.00
65406;DHT22;52016;51.228;-2.322;2022-09-09T06:52:27;15.70;80.00
65406;DHT22;52016;51.228;-2.322;2022-09-09T07:00:28;15.90;79.80
65406;DHT22;52016;51.228;-2.322;2022-09-09T07:04:11;15.90;79.80
65406;DHT22;52016;51.228;-2.322;2022-09-09T07:07:54;16.00;79.70
65406;DHT22;52016;51.228;-2.322;2022-09-09T07:11:41;16.00;79.60
65406;DHT22;52016;51.228;-2.322;2022-09-09T07:15:23;15.90;79.60
65406;DHT22;52016;51.228;-2.322;2022-09-09T07:19:06;16.00;79.50
65406;DHT22;52016;51.228;-2.322;2022-09-09T07:22:48;16.00;79.40
65406;DHT22;52016;51.228;-2.322;2022-09-09T07:26:30;16.00;79.40
65406;DHT22;52016;51.228;-2.322;2022-09-09T07:30:12;16.10;79.40
65406;DHT22;52016;51.228;-2.322;2022-09-09T07:34:04;16.20;79.30
65406;DHT22;52016;51.228;-2.322;2022-09-09T07:37:46;16.30;79.20
65406;DHT22;52016;51.228;-2.322;2022-09-09T07:41:34;16.40;78.90
65406;DHT22;52016;51.228;-2.322;2022-09-09T07:45:17;16.50;78.90
65406;DHT22;52016;51.228;-2.322;2022-09-09T07:48:59;16.70;78.90
65406;DHT22;52016;51.228;-2.322;2022-09-09T07:52:42;16.80;78.80
65406;DHT22;52016;51.228;-2.322;2022-09-09T07:56:25;17.00;78.50
65406;DHT22;52016;51.228;-2.322;2022-09-09T08:00:08;17.10;78.20
65406;DHT22;52016;51.228;-2.322;2022-09-09T08:04:04;17.20;78.10
65406;DHT22;52016;51.228;-2.322;2022-09-09T08:07:47;17.10;77.60
65406;DHT22;52016;51.228;-2.322;2022-09-09T08:11:29;17.10;77.50
65406;DHT22;52016;51.228;-2.322;2022-09-09T08:15:18;17.10;77.00
65406;DHT22;52016;51.228;-2.322;2022-09-09T08:19:00;17.00;76.20
65406;DHT22;52016;51.228;-2.322;2022-09-09T08:22:42;17.00;76.70
65406;DHT22;52016;51.228;-2.322;2022-09-09T08:26:32;17.10;76.40
65406;DHT22;52016;51.228;-2.322;2022-09-09T08:30:15;17.10;75.90
65406;DHT22;52016;51.228;-2.322;2022-09-09T08:33:57;17.30;75.80
65406;DHT22;52016;51.228;-2.322;2022-09-09T08:37:40;17.40;75.50
65406;DHT22;52016;51.228;-2.322;2022-09-09T08:45:33;17.70;74.60
65406;DHT22;52016;51.228;-2.322;2022-09-09T08:56:50;18.00;73.90
65406;DHT22;52016;51.228;-2.322;2022-09-09T09:00:46;18.00;72.30
65406;DHT22;52016;51.228;-2.322;2022-09-09T09:05:17;18.00;73.10
65406;DHT22;52016;51.228;-2.322;2022-09-09T09:12:55;18.00;72.10
65406;DHT22;52016;51.228;-2.322;2022-09-09T09:25:08;18.00;71.70
65406;DHT22;52016;51.228;-2.322;2022-09-09T09:28:55;18.00;71.90
65406;DHT22;52016;51.228;-2.322;2022-09-09T09:32:39;17.90;72.10
65406;DHT22;52016;51.228;-2.322;2022-09-09T09:36:39;17.90;72.40
65406;DHT22;52016;51.228;-2.322;2022-09-09T09:40:23;17.80;72.00
65406;DHT22;52016;51.228;-2.322;2022-09-09T09:44:21;17.80;72.40
65406;DHT22;52016;51.228;-2.322;2022-09-09T09:48:06;17.80;72.80
65406;DHT22;52016;51.228;-2.322;2022-09-09T09:52:00;17.90;72.70
65406;DHT22;52016;51.228;-2.322;2022-09-09T09:55:52;17.80;72.70
65406;DHT22;52016;51.228;-2.322;2022-09-09T09:59:35;17.70;73.00
65406;DHT22;52016;51.228;-2.322;2022-09-09T10:07:19;17.60;73.40
65406;DHT22;52016;51.228;-2.322;2022-09-09T10:11:39;17.70;73.30
65406;DHT22;52016;51.228;-2.322;2022-09-09T10:19:17;18.00;73.40
65406;DHT22;52016;51.228;-2.322;2022-09-09T10:27:49;18.20;72.60
65406;DHT22;52016;51.228;-2.322;2022-09-09T10:35:35;18.50;71.90
65406;DHT22;52016;51.228;-2.322;2022-09-09T10:39:37;18.60;72.50
65406;DHT22;52016;51.228;-2.322;2022-09-09T10:48:02;18.60;71.30
65406;DHT22;52016;51.228;-2.322;2022-09-09T10:55:47;18.70;71.10
65406;DHT22;52016;51.228;-2.322;2022-09-09T10:59:37;18.80;71.80
65406;DHT22;52016;51.228;-2.322;2022-09-09T11:03:31;18.90;71.40
65406;DHT22;52016;51.228;-2.322;2022-09-09T11:07:22;19.00;71.20
65406;DHT22;52016;51.228;-2.322;2022-09-09T11:11:08;19.20;71.50
65406;DHT22;52016;51.228;-2.322;2022-09-09T11:15:04;19.30;71.70
65406;DHT22;52016;51.228;-2.322;2022-09-09T11:18:47;19.40;71.10
65406;DHT22;52016;51.228;-2.322;2022-09-09T11:22:39;19.40;71.40
65406;DHT22;52016;51.228;-2.322;2022-09-09T11:26:36;19.20;71.30
65406;DHT22;52016;51.228;-2.322;2022-09-09T11:30:38;19.20;71.40
65406;DHT22;52016;51.228;-2.322;2022-09-09T11:38:57;19.30;71.60
65406;DHT22;52016;51.228;-2.322;2022-09-09T11:42:42;19.40;72.00
65406;DHT22;52016;51.228;-2.322;2022-09-09T11:46:34;19.50;72.10
65406;DHT22;52016;51.228;-2.322;2022-09-09T11:54:02;19.50;71.50
65406;DHT22;52016;51.228;-2.322;2022-09-09T11:57:44;19.40;71.80
65406;DHT22;52016;51.228;-2.322;2022-09-09T12:05:14;19.60;72.20
65406;DHT22;52016;51.228;-2.322;2022-09-09T12:12:52;20.20;71.00
65406;DHT22;52016;51.228;-2.322;2022-09-09T12:16:37;20.40;71.20
65406;DHT22;52016;51.228;-2.322;2022-09-09T12:24:10;20.70;69.70
65406;DHT22;52016;51.228;-2.322;2022-09-09T12:27:59;20.80;68.60
65406;DHT22;52016;51.228;-2.322;2022-09-09T12:36:04;20.90;68.60
65406;DHT22;52016;51.228;-2.322;2022-09-09T12:39:59;21.10;68.50
65406;DHT22;52016;51.228;-2.322;2022-09-09T12:43:41;21.30;67.10
65406;DHT22;52016;51.228;-2.322;2022-09-09T12:47:32;21.50;67.10
65406;DHT22;52016;51.228;-2.322;2022-09-09T12:51:28;21.40;65.90
65406;DHT22;52016;51.228;-2.322;2022-09-09T12:55:21;21.20;65.70
65406;DHT22;52016;51.228;-2.322;2022-09-09T12:59:26;20.70;66.40
65406;DHT22;52016;51.228;-2.322;2022-09-09T13:03:17;20.00;68.80
65406;DHT22;52016;51.228;-2.322;2022-09-09T13:07:07;19.30;70.60
65406;DHT22;52016;51.228;-2.322;2022-09-09T13:10:57;18.80;71.50
65406;DHT22;52016;51.228;-2.322;2022-09-09T13:14:47;18.40;71.70
65406;DHT22;52016;51.228;-2.322;2022-09-09T13:18:33;18.40;72.90
65406;DHT22;52016;51.228;-2.322;2022-09-09T13:26:26;18.50;73.80
65406;DHT22;52016;51.228;-2.322;2022-09-09T13:30:29;18.50;74.60
65406;DHT22;52016;51.228;-2.322;2022-09-09T13:34:22;18.60;74.40
65406;DHT22;52016;51.228;-2.322;2022-09-09T13:38:08;18.70;74.30
65406;DHT22;52016;51.228;-2.322;2022-09-09T13:41:53;18.90;74.80
65406;DHT22;52016;51.228;-2.322;2022-09-09T13:45:36;19.00;74.60
65406;DHT22;52016;51.228;-2.322;2022-09-09T13:49:22;19.10;74.70
65406;DHT22;52016;51.228;-2.322;2022-09-09T13:53:04;19.30;74.60
65406;DHT22;52016;51.228;-2.322;2022-09-09T13:56:46;19.40;74.50
65406;DHT22;52016;51.228;-2.322;2022-09-09T14:00:34;19.40;74.80
65406;DHT22;52016;51.228;-2.322;2022-09-09T14:04:15;19.80;75.00
65406;DHT22;52016;51.228;-2.322;2022-09-09T14:07:58;20.00;75.00
65406;DHT22;52016;51.228;-2.322;2022-09-09T14:11:42;20.10;74.70
65406;DHT22;52016;51.228;-2.322;2022-09-09T14:15:24;20.30;75.30
65406;DHT22;52016;51.228;-2.322;2022-09-09T14:19:07;21.00;75.20
65406;DHT22;52016;51.228;-2.322;2022-09-09T14:22:49;21.30;74.50
65406;DHT22;52016;51.228;-2.322;2022-09-09T14:26:31;21.40;73.60
65406;DHT22;52016;51.228;-2.322;2022-09-09T14:30:13;21.50;73.90
65406;DHT22;52016;51.228;-2.322;2022-09-09T14:33:54;22.10;73.40
65406;DHT22;52016;51.228;-2.322;2022-09-09T14:37:36;22.40;72.70
65406;DHT22;52016;51.228;-2.322;2022-09-09T14:41:19;22.30;72.10
65406;DHT22;52016;51.228;-2.322;2022-09-09T14:45:01;22.20;71.80
65406;DHT22;52016;51.228;-2.322;2022-09-09T14:48:44;22.30;71.10
65406;DHT22;52016;51.228;-2.322;2022-09-09T14:52:26;22.30;69.60
65406;DHT22;52016;51.228;-2.322;2022-09-09T14:56:11;21.90;69.50
65406;DHT22;52016;51.228;-2.322;2022-09-09T14:59:53;21.60;69.80
65406;DHT22;52016;51.228;-2.322;2022-09-09T15:03:35;21.40;69.70
65406;DHT22;52016;51.228;-2.322;2022-09-09T15:07:17;21.40;69.60
65406;DHT22;52016;51.228;-2.322;2022-09-09T15:11:02;21.60;69.60
65406;DHT22;52016;51.228;-2.322;2022-09-09T15:14:44;21.90;69.20
65406;DHT22;52016;51.228;-2.322;2022-09-09T15:18:26;22.20;68.90
65406;DHT22;52016;51.228;-2.322;2022-09-09T15:22:08;22.40;68.50
65406;DHT22;52016;51.228;-2.322;2022-09-09T15:25:55;22.00;66.40
65406;DHT22;52016;51.228;-2.322;2022-09-09T15:29:37;21.60;68.20
65406;DHT22;52016;51.228;-2.322;2022-09-09T15:33:21;21.20;68.30
65406;DHT22;52016;51.228;-2.322;2022-09-09T15:37:03;20.80;68.70
65406;DHT22;52016;51.228;-2.322;2022-09-09T15:40:53;20.50;69.10
65406;DHT22;52016;51.228;-2.322;2022-09-09T15:44:42;20.30;69.30
65406;DHT22;52016;51.228;-2.322;2022-09-09T15:48:30;19.90;69.90
65406;DHT22;52016;51.228;-2.322;2022-09-09T15:52:13;19.80;70.70
65406;DHT22;52016;51.228;-2.322;2022-09-09T15:55:55;19.90;70.60
65406;DHT22;52016;51.228;-2.322;2022-09-09T15:59:37;20.00;70.40
65406;DHT22;52016;51.228;-2.322;2022-09-09T16:03:19;20.40;70.80
65406;DHT22;52016;51.228;-2.322;2022-09-09T16:07:04;21.40;70.50
65406;DHT22;52016;51.228;-2.322;2022-09-09T16:10:46;22.50;69.10
65406;DHT22;52016;51.228;-2.322;2022-09-09T16:14:29;23.30;66.70
65406;DHT22;52016;51.228;-2.322;2022-09-09T16:18:15;24.00;66.30
65406;DHT22;52016;51.228;-2.322;2022-09-09T16:21:57;24.70;65.00
65406;DHT22;52016;51.228;-2.322;2022-09-09T16:25:39;24.90;64.40
65406;DHT22;52016;51.228;-2.322;2022-09-09T16:29:21;25.00;63.00
65406;DHT22;52016;51.228;-2.322;2022-09-09T16:33:03;24.90;63.30
65406;DHT22;52016;51.228;-2.322;2022-09-09T16:36:47;24.40;63.10
65406;DHT22;52016;51.228;-2.322;2022-09-09T16:40:29;23.80;62.80
65406;DHT22;52016;51.228;-2.322;2022-09-09T16:44:13;23.10;63.90
65406;DHT22;52016;51.228;-2.322;2022-09-09T16:47:55;22.60;64.60
65406;DHT22;52016;51.228;-2.322;2022-09-09T16:51:39;22.60;64.70
65406;DHT22;52016;51.228;-2.322;2022-09-09T16:55:21;23.20;64.40
65406;DHT22;52016;51.228;-2.322;2022-09-09T16:59:05;23.90;63.40
65406;DHT22;52016;51.228;-2.322;2022-09-09T17:02:47;24.20;62.40
65406;DHT22;52016;51.228;-2.322;2022-09-09T17:06:31;23.90;62.30
65406;DHT22;52016;51.228;-2.322;2022-09-09T17:10:14;23.50;62.80
65406;DHT22;52016;51.228;-2.322;2022-09-09T17:13:57;23.10;63.10
65406;DHT22;52016;51.228;-2.322;2022-09-09T17:17:39;22.70;63.70
65406;DHT22;52016;51.228;-2.322;2022-09-09T17:21:25;22.30;64.20
65406;DHT22;52016;51.228;-2.322;2022-09-09T17:25:07;22.00;64.40
65406;DHT22;52016;51.228;-2.322;2022-09-09T17:28:49;21.90;64.80
65406;DHT22;52016;51.228;-2.322;2022-09-09T17:32:31;21.70;65.10
65406;DHT22;52016;51.228;-2.322;2022-09-09T17:36:18;21.60;65.30
65406;DHT22;52016;51.228;-2.322;2022-09-09T17:40:00;21.40;65.50
65406;DHT22;52016;51.228;-2.322;2022-09-09T17:43:43;21.20;65.90
65406;DHT22;52016;51.228;-2.322;2022-09-09T17:47:25;20.90;66.10
65406;DHT22;52016;51.228;-2.322;2022-09-09T17:51:08;20.80;66.40
65406;DHT22;52016;51.228;-2.322;2022-09-09T17:54:50;20.60;66.70
65406;DHT22;52016;51.228;-2.322;2022-09-09T17:58:32;20.40;67.10
65406;DHT22;52016;51.228;-2.322;2022-09-09T18:02:14;20.20;67.60
65406;DHT22;52016;51.228;-2.322;2022-09-09T18:06:00;20.00;67.80
65406;DHT22;52016;51.228;-2.322;2022-09-09T18:09:42;19.90;68.30
65406;DHT22;52016;51.228;-2.322;2022-09-09T18:13:25;19.80;68.30
65406;DHT22;52016;51.228;-2.322;2022-09-09T18:17:06;19.70;68.50
65406;DHT22;52016;51.228;-2.322;2022-09-09T18:21:02;19.60;68.70
65406;DHT22;52016;51.228;-2.322;2022-09-09T18:24:46;19.60;69.50
65406;DHT22;52016;51.228;-2.322;2022-09-09T18:28:28;19.50;69.20
65406;DHT22;52016;51.228;-2.322;2022-09-09T18:32:10;19.40;69.50
65406;DHT22;52016;51.228;-2.322;2022-09-09T18:35:52;19.40;69.60
65406;DHT22;52016;51.228;-2.322;2022-09-09T18:39:37;19.30;69.80
65406;DHT22;52016;51.228;-2.322;2022-09-09T18:43:19;19.30;70.10
65406;DHT22;52016;51.228;-2.322;2022-09-09T18:47:01;19.20;70.30
65406;DHT22;52016;51.228;-2.322;2022-09-09T18:50:44;19.10;70.50
65406;DHT22;52016;51.228;-2.322;2022-09-09T18:54:28;19.10;70.70
65406;DHT22;52016;51.228;-2.322;2022-09-09T18:58:14;19.00;71.00
65406;DHT22;52016;51.228;-2.322;2022-09-09T19:01:56;19.00;70.90
65406;DHT22;52016;51.228;-2.322;2022-09-09T19:05:38;18.90;71.10
65406;DHT22;52016;51.228;-2.322;2022-09-09T19:09:21;18.80;71.50
65406;DHT22;52016;51.228;-2.322;2022-09-09T19:13:02;18.70;71.80
65406;DHT22;52016;51.228;-2.322;2022-09-09T19:16:45;18.60;72.60
65406;DHT22;52016;51.228;-2.322;2022-09-09T19:20:29;18.60;72.50
65406;DHT22;52016;51.228;-2.322;2022-09-09T19:27:52;18.50;72.70
65406;DHT22;52016;51.228;-2.322;2022-09-09T19:31:35;18.40;72.90
65406;DHT22;52016;51.228;-2.322;2022-09-09T19:35:17;18.40;73.00
65406;DHT22;52016;51.228;-2.322;2022-09-09T19:39:00;18.40;73.10
65406;DHT22;52016;51.228;-2.322;2022-09-09T19:42:43;18.40;73.80
65406;DHT22;52016;51.228;-2.322;2022-09-09T19:46:29;18.40;73.60
65406;DHT22;52016;51.228;-2.322;2022-09-09T19:50:11;18.40;73.80
65406;DHT22;52016;51.228;-2.322;2022-09-09T19:53:55;18.30;73.90
65406;DHT22;52016;51.228;-2.322;2022-09-09T19:57:37;18.30;74.00
65406;DHT22;52016;51.228;-2.322;2022-09-09T20:01:22;18.20;74.00
65406;DHT22;52016;51.228;-2.322;2022-09-09T20:05:05;18.20;74.30
65406;DHT22;52016;51.228;-2.322;2022-09-09T20:08:47;18.10;74.40
65406;DHT22;52016;51.228;-2.322;2022-09-09T20:12:29;18.10;74.50
65406;DHT22;52016;51.228;-2.322;2022-09-09T20:16:14;18.00;74.50
65406;DHT22;52016;51.228;-2.322;2022-09-09T20:19:56;18.00;74.60
65406;DHT22;52016;51.228;-2.322;2022-09-09T20:23:38;18.00;74.60
65406;DHT22;52016;51.228;-2.322;2022-09-09T20:27:19;18.00;74.60
65406;DHT22;52016;51.228;-2.322;2022-09-09T20:31:13;18.00;74.60
65406;DHT22;52016;51.228;-2.322;2022-09-09T20:34:56;17.90;75.40
65406;DHT22;52016;51.228;-2.322;2022-09-09T20:42:28;17.90;75.50
65406;DHT22;52016;51.228;-2.322;2022-09-09T20:46:09;17.70;75.10
65406;DHT22;52016;51.228;-2.322;2022-09-09T20:49:51;17.70;75.10
65406;DHT22;52016;51.228;-2.322;2022-09-09T20:53:33;17.70;75.10
65406;DHT22;52016;51.228;-2.322;2022-09-09T20:57:15;17.60;75.20
65406;DHT22;52016;51.228;-2.322;2022-09-09T21:01:04;17.50;75.20
65406;DHT22;52016;51.228;-2.322;2022-09-09T21:04:46;17.50;75.30
65406;DHT22;52016;51.228;-2.322;2022-09-09T21:08:28;17.40;75.40
65406;DHT22;52016;51.228;-2.322;2022-09-09T21:12:10;17.40;75.70
65406;DHT22;52016;51.228;-2.322;2022-09-09T21:15:52;17.40;75.80
65406;DHT22;52016;51.228;-2.322;2022-09-09T21:19:34;17.30;76.00
65406;DHT22;52016;51.228;-2.322;2022-09-09T21:23:16;17.30;76.10
65406;DHT22;52016;51.228;-2.322;2022-09-09T21:26:58;17.20;76.20
65406;DHT22;52016;51.228;-2.322;2022-09-09T21:30:41;17.20;76.30
65406;DHT22;52016;51.228;-2.322;2022-09-09T21:34:27;17.20;76.30
65406;DHT22;52016;51.228;-2.322;2022-09-09T21:38:29;17.20;76.50
65406;DHT22;52016;51.228;-2.322;2022-09-09T21:42:11;17.20;77.50
65406;DHT22;52016;51.228;-2.322;2022-09-09T21:45:54;17.10;76.50
65406;DHT22;52016;51.228;-2.322;2022-09-09T21:49:37;17.10;76.70
65406;DHT22;52016;51.228;-2.322;2022-09-09T21:53:19;17.10;76.80
65406;DHT22;52016;51.228;-2.322;2022-09-09T21:57:00;17.10;76.80
65406;DHT22;52016;51.228;-2.322;2022-09-09T22:00:45;17.10;76.80
65406;DHT22;52016;51.228;-2.322;2022-09-09T22:04:27;17.10;76.80
65406;DHT22;52016;51.228;-2.322;2022-09-09T22:08:10;17.10;76.80
65406;DHT22;52016;51.228;-2.322;2022-09-09T22:11:52;17.20;76.70
65406;DHT22;52016;51.228;-2.322;2022-09-09T22:15:34;17.10;76.60
65406;DHT22;52016;51.228;-2.322;2022-09-09T22:19:17;17.10;76.60
65406;DHT22;52016;51.228;-2.322;2022-09-09T22:22:59;17.00;76.60
65406;DHT22;52016;51.228;-2.322;2022-09-09T22:26:42;17.10;76.60
65406;DHT22;52016;51.228;-2.322;2022-09-09T22:30:23;17.00;76.70
65406;DHT22;52016;51.228;-2.322;2022-09-09T22:34:05;16.90;76.70
65406;DHT22;52016;51.228;-2.322;2022-09-09T22:37:47;16.90;76.70
65406;DHT22;52016;51.228;-2.322;2022-09-09T22:41:29;16.90;76.70
65406;DHT22;52016;51.228;-2.322;2022-09-09T22:45:12;16.80;76.80
65406;DHT22;52016;51.228;-2.322;2022-09-09T22:48:54;16.80;76.80
65406;DHT22;52016;51.228;-2.322;2022-09-09T22:52:36;16.70;76.90
65406;DHT22;52016;51.228;-2.322;2022-09-09T22:56:18;16.70;76.80
65406;DHT22;52016;51.228;-2.322;2022-09-09T23:00:00;16.70;76.80
65406;DHT22;52016;51.228;-2.322;2022-09-09T23:03:42;16.60;76.80
65406;DHT22;52016;51.228;-2.322;2022-09-09T23:07:27;16.50;76.90
65406;DHT22;52016;51.228;-2.322;2022-09-09T23:11:10;16.50;76.90
65406;DHT22;52016;51.228;-2.322;2022-09-09T23:14:52;16.50;76.80
65406;DHT22;52016;51.228;-2.322;2022-09-09T23:18:37;16.40;76.90
65406;DHT22;52016;51.228;-2.322;2022-09-09T23:22:21;16.40;76.90
65406;DHT22;52016;51.228;-2.322;2022-09-09T23:26:04;16.40;76.90
65406;DHT22;52016;51.228;-2.322;2022-09-09T23:29:47;16.40;76.90
65406;DHT22;52016;51.228;-2.322;2022-09-09T23:33:30;16.30;76.90
65406;DHT22;52016;51.228;-2.322;2022-09-09T23:37:12;16.30;76.80
65406;DHT22;52016;51.228;-2.322;2022-09-09T23:40:54;16.30;76.90
65406;DHT22;52016;51.228;-2.322;2022-09-09T23:44:37;16.20;76.90
65406;DHT22;52016;51.228;-2.322;2022-09-09T23:48:20;16.20;77.00
65406;DHT22;52016;51.228;-2.322;2022-09-09T23:52:02;16.20;77.00
65406;DHT22;52016;51.228;-2.322;2022-09-09T23:55:45;16.20;76.90
65406;DHT22;52016;51.228;-2.322;2022-09-09T23:59:28;16.10;77.00
